No es requerida especial atención con respecto al clima.   -   No hay avisos meteorológicos

Nearby METAR Reports

 

LEZL - Sevilla, Spain
Distance from station: ESE 25km
Actualizado: 22/11/2017 19:00
Céu Limpo
Céu Limpo
 Vento de SSW
Vento: SSW 4 km/h
Temperatura: 16°C
Ponto de Orvalho: 3°C
Humidade: 42%
Barómetro: 1015 hPa
Resumo: Céu Limpo
Visibility: greater than 10 km
2017/11/22 18:00 LEZL 221800Z 21002KT CAVOK 16/03 Q1015 NOSIG
LEMO - Morón, Spain
Distance from station: SE 65km
Actualizado: 22/11/2017 19:00
Céu Limpo
Céu Limpo
 Vento de calm
Vento: Calmo
Temperatura: 14°C
Ponto de Orvalho: 3°C
Humidade: 48%
Barómetro: 1015 hPa
Resumo: Céu Limpo
Visibility: greater than 10 km
2017/11/22 18:00 LEMO 221800Z 00000KT CAVOK 14/03 Q1015 NOSIG
LEJR - Jeréz, Spain
Distance from station: S 87km
Actualizado: 22/11/2017 19:00
Céu Limpo
Céu Limpo
 Vento de varies
Vento: varies 2 km/h
Temperatura: 15°C
Ponto de Orvalho: 11°C
Humidade: 77%
Barómetro: 1015 hPa
Resumo: Céu Limpo
Visibility: greater than 10 km
2017/11/22 18:00 LEJR 221800Z VRB01KT CAVOK 15/11 Q1015
 
LERT - Rota, Spain
Distance from station: S 101km
Actualizado: 22/11/2017 19:00
Céu Limpo
Céu Limpo
 Vento de SSE
Vento: SSE 7 km/h
Temperatura: 17°C
Ponto de Orvalho: 13°C
Humidade: 77%
Barómetro: 1015 hPa
Resumo: Céu Limpo
Visibility: greater than 10 km
2017/11/22 18:00 LERT 221800Z 16004KT 140V200 CAVOK 17/13 Q1015 NOSIG
LEMG - Málaga, Spain
Distance from station: ESE 178km
Actualizado: 22/11/2017 19:00
Céu Limpo
Céu Limpo
 Vento de calm
Vento: Calmo
Temperatura: 14°C
Ponto de Orvalho: 10°C
Humidade: 77%
Barómetro: 1016 hPa
Resumo: Céu Limpo
Visibility: greater than 10 km
2017/11/22 18:00 LEMG 221800Z 00000KT CAVOK 14/10 Q1016 NOSIG
LEBA - Córdoba, Spain
Distance from station: ENE 123km
Actualizado: 22/11/2017 19:00
Céu Limpo
Céu Limpo
 Vento de calm
Vento: Calmo
Temperatura: 13°C
Ponto de Orvalho: 4°C
Humidade: 55%
Barómetro: 1015 hPa
Clouds: Céu Limpo
Visibility: 10 km
2017/11/22 18:00 LEBA 221800Z AUTO 00000KT 9999 NCD 13/04 Q1015
 
LEGR - Granada, Spain
Distance from station: E 215km
Actualizado: 22/11/2017 19:00
Céu Limpo
Céu Limpo
 Vento de varies
Vento: varies 4 km/h
Temperatura: 10°C
Ponto de Orvalho: -1°C
Humidade: 47%
Barómetro: 1016 hPa
Resumo: Céu Limpo
Visibility: greater than 10 km
2017/11/22 18:00 LEGR 221800Z VRB02KT CAVOK 10/M01 Q1016
LEAM - Almería, Spain
Distance from station: E 344km
Actualizado: 22/11/2017 19:00
Céu Limpo
Céu Limpo
 Vento de calm
Vento: Calmo
Temperatura: 14°C
Ponto de Orvalho: 11°C
Humidade: 82%
Barómetro: 1015 hPa
Resumo: Céu Limpo
Visibility: greater than 10 km
2017/11/22 18:00 LEAM 221800Z 00000KT CAVOK 14/11 Q1015
GCLP - Las Palmas/Aeropuerto, Spain
Distance from station: SO 1410km
Actualizado: 22/11/2017 19:00
Céu Limpo
Céu Limpo
 Vento de S
Vento: S 11 km/h
Temperatura: 22°C
Ponto de Orvalho: 16°C
Humidade: 69%
Barómetro: 1013 hPa
Resumo: Céu Limpo
Visibility: greater than 10 km
2017/11/22 18:00 GCLP 221800Z 18006KT CAVOK 22/16 Q1013 NOSIG
 
LEMD - Madrid/Barajas, Spain
Distance from station: NNE 402km
Actualizado: 22/11/2017 19:00
Céu Limpo
Céu Limpo
 Vento de SE
Vento: SE 6 km/h
Temperatura: 13°C
Ponto de Orvalho: -1°C
Humidade: 38%
Barómetro: 1014 hPa
Resumo: Céu Limpo
Visibility: greater than 10 km
2017/11/22 18:00 LEMD 221800Z 14003KT 110V180 CAVOK 13/M01 Q1014 NOSIG
LEVD - Valladolid, Spain
Distance from station: N 492km
Actualizado: 22/11/2017 19:00
Céu Limpo
Céu Limpo
 Vento de SW
Vento: SW 19 km/h
Temperatura: 13°C
Ponto de Orvalho: -2°C
Humidade: 36%
Barómetro: 1012 hPa
Resumo: Céu Limpo
Visibility: greater than 10 km
2017/11/22 18:00 LEVD 221800Z 22010KT CAVOK 13/M02 Q1012
LEBL - Barcelona, Spain
Distance from station: NE 816km
Actualizado: 22/11/2017 19:00
Few Clouds
Few Clouds
 Vento de WSW
Vento: WSW 13 km/h
Temperatura: 15°C
Ponto de Orvalho: 12°C
Humidade: 82%
Barómetro: 1015 hPa
Clouds: Few Clouds
Visibility: 10 km
Cloud details: Few Clouds 518 m
2017/11/22 18:00 LEBL 221800Z 24007KT 9999 FEW017 15/12 Q1015 NOSIG